createdAt,value
2022-07-31T00:00:27.452Z,17.70
2022-07-31T00:03:15.221Z,17.80
2022-07-31T00:06:02.970Z,17.70
2022-07-31T00:08:51.007Z,17.70
2022-07-31T00:11:38.750Z,17.70
2022-07-31T00:14:26.418Z,17.70
2022-07-31T00:17:14.114Z,17.70
2022-07-31T00:20:02.301Z,17.70
2022-07-31T00:22:50.639Z,17.70
2022-07-31T00:25:38.614Z,17.70
2022-07-31T00:28:26.988Z,17.70
2022-07-31T00:31:14.552Z,17.80
2022-07-31T00:34:02.168Z,17.80
2022-07-31T00:36:49.974Z,17.70
2022-07-31T00:39:38.584Z,17.70
2022-07-31T00:42:26.592Z,17.60
2022-07-31T00:45:14.197Z,17.60
2022-07-31T00:48:04.034Z,17.60
2022-07-31T00:50:52.344Z,17.60
2022-07-31T00:53:39.998Z,17.50
2022-07-31T00:56:27.608Z,17.60
2022-07-31T00:59:15.269Z,17.60
2022-07-31T01:02:04.749Z,17.60
2022-07-31T01:04:52.314Z,17.70
2022-07-31T01:07:39.893Z,17.60
2022-07-31T01:11:12.412Z,17.60
2022-07-31T01:14:05.733Z,17.60
2022-07-31T01:16:56.754Z,17.60
2022-07-31T01:19:47.331Z,17.60
2022-07-31T01:23:02.139Z,17.60
2022-07-31T01:26:03.145Z,17.60
2022-07-31T01:29:10.434Z,17.60
2022-07-31T01:32:10.919Z,17.50
2022-07-31T01:35:11.886Z,17.60
2022-07-31T01:38:11.765Z,17.60
2022-07-31T01:41:04.749Z,17.50
2022-07-31T01:43:57.130Z,17.50
2022-07-31T01:46:48.150Z,17.50
2022-07-31T01:49:37.859Z,17.40
2022-07-31T01:52:29.884Z,17.40
2022-07-31T01:55:18.651Z,17.40
2022-07-31T01:58:07.722Z,17.40
2022-07-31T02:00:58.629Z,17.40
2022-07-31T02:03:51.481Z,17.40
2022-07-31T02:06:49.149Z,17.40
2022-07-31T02:09:38.154Z,17.40
2022-07-31T02:12:47.217Z,17.40
2022-07-31T02:15:36.279Z,17.30
2022-07-31T02:18:25.604Z,17.40
2022-07-31T02:21:13.194Z,17.40
2022-07-31T02:24:00.954Z,17.40
2022-07-31T02:26:49.289Z,17.30
2022-07-31T02:29:40.261Z,17.30
2022-07-31T02:32:31.589Z,17.30
2022-07-31T02:35:20.286Z,17.20
2022-07-31T02:38:17.102Z,17.20
2022-07-31T02:41:17.311Z,17.20
2022-07-31T02:44:05.768Z,17.20
2022-07-31T02:46:54.019Z,17.10
2022-07-31T02:49:43.177Z,17.10
2022-07-31T02:52:33.825Z,17.10
2022-07-31T02:55:21.785Z,17.10
2022-07-31T02:58:09.516Z,17.00
2022-07-31T03:01:07.444Z,17.00
2022-07-31T03:03:55.121Z,16.90
2022-07-31T03:06:50.368Z,16.90
2022-07-31T03:09:37.887Z,16.90
2022-07-31T03:12:25.549Z,16.80
2022-07-31T03:15:20.086Z,16.80
2022-07-31T03:18:11.896Z,16.70
2022-07-31T03:20:59.691Z,16.70
2022-07-31T03:23:47.892Z,16.70
2022-07-31T03:26:36.270Z,16.60
2022-07-31T03:29:39.236Z,16.60
2022-07-31T03:32:30.734Z,16.50
2022-07-31T03:35:18.607Z,16.40
2022-07-31T03:38:40.654Z,16.40
2022-07-31T03:41:13.764Z,16.30
2022-07-31T03:44:02.659Z,16.20
2022-07-31T03:46:50.401Z,16.20
2022-07-31T03:49:38.810Z,16.20
2022-07-31T03:52:26.336Z,16.30
2022-07-31T03:55:14.729Z,16.30
2022-07-31T03:58:04.919Z,16.40
2022-07-31T04:00:55.208Z,16.40
2022-07-31T04:03:43.069Z,16.40
2022-07-31T04:06:30.549Z,16.40
2022-07-31T04:09:18.837Z,16.40
2022-07-31T04:12:07.452Z,16.40
2022-07-31T04:14:55.205Z,16.40
2022-07-31T04:17:42.879Z,16.40
2022-07-31T04:20:30.334Z,16.40
2022-07-31T04:23:17.865Z,16.40
2022-07-31T04:26:07.039Z,16.40
2022-07-31T04:28:54.733Z,16.50
2022-07-31T04:31:42.405Z,16.70
2022-07-31T04:34:29.879Z,17.00
2022-07-31T04:37:17.448Z,17.20
2022-07-31T04:40:05.541Z,17.40
2022-07-31T04:42:55.669Z,17.80
2022-07-31T04:45:43.704Z,18.20
2022-07-31T04:48:31.160Z,18.60
2022-07-31T04:51:21.020Z,18.90
2022-07-31T04:54:10.110Z,19.10
2022-07-31T04:56:57.660Z,19.30
2022-07-31T04:59:59.663Z,19.50
2022-07-31T05:02:48.602Z,19.70
2022-07-31T05:05:36.086Z,20.00
2022-07-31T05:08:23.557Z,20.40
2022-07-31T05:11:23.001Z,20.50
2022-07-31T05:14:13.415Z,20.80
2022-07-31T05:17:01.005Z,20.70
2022-07-31T05:19:48.582Z,20.60
2022-07-31T05:22:36.049Z,20.50
2022-07-31T05:25:23.502Z,20.30
2022-07-31T05:28:11.000Z,20.40
2022-07-31T05:31:00.465Z,20.00
2022-07-31T05:33:50.217Z,19.60
2022-07-31T05:36:37.726Z,19.10
2022-07-31T05:39:25.383Z,18.90
2022-07-31T05:42:12.866Z,18.70
2022-07-31T05:45:00.362Z,18.50
2022-07-31T05:47:47.954Z,18.30
2022-07-31T05:50:35.520Z,18.20
2022-07-31T05:53:23.652Z,18.00
2022-07-31T05:56:11.185Z,18.20
2022-07-31T05:58:58.720Z,18.40
2022-07-31T06:01:46.654Z,18.50
2022-07-31T06:04:34.338Z,19.00
2022-07-31T06:07:21.850Z,19.50
2022-07-31T06:10:09.991Z,19.70
2022-07-31T06:12:57.481Z,20.20
2022-07-31T06:15:49.408Z,20.30
2022-07-31T06:18:37.080Z,20.30
2022-07-31T06:21:28.746Z,20.30
2022-07-31T06:24:18.160Z,20.30
2022-07-31T06:27:05.700Z,20.10
2022-07-31T06:29:57.963Z,20.20
2022-07-31T06:32:45.467Z,20.10
2022-07-31T06:35:33.196Z,20.10
2022-07-31T06:38:24.384Z,20.10
2022-07-31T06:41:11.976Z,20.20
2022-07-31T06:43:59.506Z,20.20
2022-07-31T06:46:49.024Z,20.20
2022-07-31T06:49:36.894Z,20.20
2022-07-31T06:52:27.630Z,20.30
2022-07-31T06:55:15.184Z,20.30
2022-07-31T06:58:02.631Z,20.20
2022-07-31T07:00:50.232Z,20.00
2022-07-31T07:03:38.590Z,20.20
2022-07-31T07:06:27.048Z,20.30
2022-07-31T07:09:14.548Z,20.40
2022-07-31T07:12:02.189Z,20.50
2022-07-31T07:14:49.689Z,20.70
2022-07-31T07:17:37.188Z,20.70
2022-07-31T07:20:24.769Z,20.80
2022-07-31T07:23:12.717Z,21.00
2022-07-31T07:26:00.167Z,21.10
2022-07-31T07:28:47.792Z,21.00
2022-07-31T07:31:35.286Z,21.10
2022-07-31T07:34:22.781Z,21.30
2022-07-31T07:37:10.300Z,21.30
2022-07-31T07:40:03.743Z,21.40
2022-07-31T07:42:51.608Z,21.40
2022-07-31T07:45:40.094Z,21.40
2022-07-31T07:48:27.665Z,21.60
2022-07-31T07:51:15.365Z,21.70
2022-07-31T07:54:02.904Z,21.80
2022-07-31T07:56:51.340Z,21.80
2022-07-31T07:59:38.825Z,21.90
2022-07-31T08:02:26.765Z,22.00
2022-07-31T08:05:14.620Z,22.20
2022-07-31T08:08:02.076Z,22.30
2022-07-31T08:10:50.001Z,22.20
2022-07-31T08:13:40.881Z,22.30
2022-07-31T08:16:28.710Z,22.30
2022-07-31T08:19:16.257Z,22.30
2022-07-31T08:22:04.226Z,22.40
2022-07-31T08:24:52.069Z,22.50
2022-07-31T08:27:40.731Z,22.70
2022-07-31T08:30:31.158Z,22.80
2022-07-31T08:33:18.913Z,22.80
2022-07-31T08:36:09.142Z,22.90
2022-07-31T08:38:56.811Z,23.10
2022-07-31T08:41:44.380Z,23.10
2022-07-31T08:44:31.905Z,23.10
2022-07-31T08:47:22.976Z,23.10
2022-07-31T08:50:15.684Z,23.30
2022-07-31T08:53:05.187Z,23.50
2022-07-31T08:55:56.417Z,23.40
2022-07-31T08:58:45.191Z,23.60
2022-07-31T09:01:37.724Z,23.60
2022-07-31T09:04:25.828Z,23.80
2022-07-31T09:07:16.818Z,23.90
2022-07-31T09:10:23.464Z,23.70
2022-07-31T09:13:19.146Z,23.90
2022-07-31T09:16:07.499Z,23.80
2022-07-31T09:19:51.852Z,23.90
2022-07-31T09:22:29.383Z,24.00
2022-07-31T09:25:19.175Z,24.20
2022-07-31T09:28:07.764Z,24.40
2022-07-31T09:30:57.121Z,24.30
2022-07-31T09:33:46.687Z,24.30
2022-07-31T09:36:35.005Z,24.30
2022-07-31T09:39:27.004Z,24.30
2022-07-31T09:42:16.640Z,24.40
2022-07-31T09:45:16.862Z,24.50
2022-07-31T09:48:14.461Z,24.70
2022-07-31T09:51:08.539Z,24.60
2022-07-31T09:53:57.929Z,24.40
2022-07-31T09:56:47.139Z,24.40
2022-07-31T09:59:34.562Z,24.40
2022-07-31T10:02:25.619Z,24.50
2022-07-31T10:05:13.983Z,24.50
2022-07-31T10:08:02.695Z,24.70
2022-07-31T10:10:50.725Z,24.80
2022-07-31T10:13:46.421Z,25.00
2022-07-31T10:16:40.781Z,24.80
2022-07-31T10:19:36.141Z,25.00
2022-07-31T10:22:26.501Z,25.30
2022-07-31T10:25:27.504Z,25.40
2022-07-31T10:28:15.820Z,25.20
2022-07-31T10:31:04.225Z,25.30
2022-07-31T10:33:52.415Z,25.30
2022-07-31T10:36:45.460Z,25.50
2022-07-31T10:39:49.918Z,25.40
2022-07-31T10:42:55.676Z,25.20
2022-07-31T10:45:54.149Z,25.40
2022-07-31T10:48:54.692Z,25.30
2022-07-31T10:51:50.911Z,25.40
2022-07-31T10:54:47.855Z,25.50
2022-07-31T10:57:56.380Z,25.40
2022-07-31T11:00:44.065Z,25.60
2022-07-31T11:03:41.879Z,25.80
2022-07-31T11:06:41.791Z,25.90
2022-07-31T11:09:30.100Z,26.10
2022-07-31T11:12:21.700Z,26.00
2022-07-31T11:15:26.045Z,26.20
2022-07-31T11:18:26.732Z,26.20
2022-07-31T11:21:37.580Z,26.10
2022-07-31T11:24:24.239Z,26.20
2022-07-31T11:27:11.750Z,25.90
2022-07-31T11:30:13.357Z,26.20
2022-07-31T11:33:01.361Z,26.00
2022-07-31T11:35:49.045Z,26.10
2022-07-31T11:38:37.791Z,26.00
2022-07-31T11:41:39.131Z,26.30
2022-07-31T11:44:31.904Z,26.50
2022-07-31T11:47:27.872Z,26.50
2022-07-31T11:50:31.105Z,26.00
2022-07-31T11:53:19.768Z,25.60
2022-07-31T11:56:10.097Z,25.60
2022-07-31T11:58:58.810Z,25.70
2022-07-31T12:01:46.417Z,25.70
2022-07-31T12:04:38.355Z,25.70
2022-07-31T12:07:25.892Z,25.80
2022-07-31T12:10:14.237Z,25.80
2022-07-31T12:13:02.820Z,25.70
2022-07-31T12:16:08.374Z,25.60
2022-07-31T12:19:01.399Z,25.40
2022-07-31T12:21:48.890Z,25.30
2022-07-31T12:24:36.395Z,25.30
2022-07-31T12:27:23.905Z,25.30
2022-07-31T12:30:16.895Z,25.10
2022-07-31T12:33:13.025Z,24.90
2022-07-31T12:36:00.535Z,24.70
2022-07-31T12:39:03.789Z,24.60
2022-07-31T12:41:51.331Z,24.60
2022-07-31T12:44:52.837Z,24.60
2022-07-31T12:47:40.571Z,25.10
2022-07-31T12:50:30.345Z,25.80
2022-07-31T12:53:17.834Z,26.00
2022-07-31T12:56:10.591Z,25.90
2022-07-31T12:58:58.104Z,25.70
2022-07-31T13:01:45.578Z,25.70
2022-07-31T13:04:34.357Z,25.50
2022-07-31T13:07:21.865Z,25.30
2022-07-31T13:10:19.993Z,25.30
2022-07-31T13:13:09.250Z,25.30
2022-07-31T13:15:56.746Z,25.60
2022-07-31T13:18:44.214Z,25.70
2022-07-31T13:21:48.431Z,26.10
2022-07-31T13:24:37.184Z,26.60
2022-07-31T13:27:24.734Z,26.60
2022-07-31T13:30:14.152Z,26.60
2022-07-31T13:33:01.691Z,26.20
2022-07-31T13:35:49.331Z,26.10
2022-07-31T13:38:36.843Z,26.20
2022-07-31T13:41:24.344Z,26.00
2022-07-31T13:44:11.770Z,25.80
2022-07-31T13:46:59.748Z,25.60
2022-07-31T13:49:47.199Z,25.40
2022-07-31T13:52:34.635Z,25.40
2022-07-31T13:55:22.163Z,25.30
2022-07-31T13:58:09.655Z,25.60
2022-07-31T14:01:00.302Z,26.00
2022-07-31T14:03:51.444Z,26.30
2022-07-31T14:06:39.598Z,26.60
2022-07-31T14:09:27.118Z,26.90
2022-07-31T14:12:14.615Z,26.90
2022-07-31T14:15:04.441Z,26.70
2022-07-31T14:17:51.943Z,26.80
2022-07-31T14:20:39.449Z,26.50
2022-07-31T14:23:34.044Z,26.20
2022-07-31T14:26:23.759Z,26.00
2022-07-31T14:29:11.293Z,25.90
2022-07-31T14:31:59.019Z,25.70
2022-07-31T14:34:52.231Z,25.50
2022-07-31T14:37:41.881Z,25.60
2022-07-31T14:40:30.928Z,26.00
2022-07-31T14:43:18.474Z,26.20
2022-07-31T14:46:07.166Z,26.30
2022-07-31T14:48:54.786Z,26.30
2022-07-31T14:51:42.309Z,26.10
2022-07-31T14:54:29.847Z,26.10
2022-07-31T14:57:21.962Z,25.90
2022-07-31T15:00:15.030Z,25.90
2022-07-31T15:03:02.656Z,25.80
2022-07-31T15:06:39.439Z,25.90
2022-07-31T15:08:57.569Z,26.00
2022-07-31T15:11:58.247Z,26.20
2022-07-31T15:14:48.299Z,26.60
2022-07-31T15:17:35.904Z,27.10
2022-07-31T15:20:28.822Z,27.10
2022-07-31T15:23:21.301Z,27.40
2022-07-31T15:26:08.854Z,27.80
2022-07-31T15:28:56.384Z,27.40
2022-07-31T15:31:43.880Z,27.30
2022-07-31T15:34:32.769Z,27.00
2022-07-31T15:37:20.705Z,26.70
2022-07-31T15:40:16.996Z,26.40
2022-07-31T15:43:04.510Z,26.30
2022-07-31T15:45:52.001Z,26.30
2022-07-31T15:48:39.805Z,26.20
2022-07-31T15:51:27.414Z,26.10
2022-07-31T15:54:15.375Z,26.10
2022-07-31T15:57:03.055Z,26.10
2022-07-31T15:59:54.496Z,26.00
2022-07-31T16:02:45.520Z,26.10
2022-07-31T16:05:36.731Z,26.10
2022-07-31T16:08:29.640Z,26.10
2022-07-31T16:11:22.030Z,26.20
2022-07-31T16:14:10.631Z,26.50
2022-07-31T16:16:58.199Z,26.80
2022-07-31T16:19:45.835Z,27.00
2022-07-31T16:22:33.320Z,27.20
2022-07-31T16:25:23.002Z,27.40
2022-07-31T16:28:10.513Z,27.60
2022-07-31T16:30:57.989Z,27.70
2022-07-31T16:33:50.795Z,27.80
2022-07-31T16:36:38.654Z,27.80
2022-07-31T16:39:26.177Z,27.40
2022-07-31T16:42:13.665Z,27.10
2022-07-31T16:45:01.156Z,27.10
2022-07-31T16:47:51.437Z,27.30
2022-07-31T16:50:39.520Z,27.50
2022-07-31T16:54:11.366Z,27.40
2022-07-31T16:56:37.624Z,27.30
2022-07-31T16:59:25.146Z,27.40
2022-07-31T17:02:13.349Z,27.50
2022-07-31T17:05:00.841Z,27.30
2022-07-31T17:07:48.295Z,27.10
2022-07-31T17:10:35.748Z,26.90
2022-07-31T17:13:23.310Z,26.60
2022-07-31T17:16:10.964Z,26.30
2022-07-31T17:18:58.811Z,26.10
2022-07-31T17:21:53.291Z,26.00
2022-07-31T17:24:41.091Z,26.20
2022-07-31T17:27:28.699Z,26.30
2022-07-31T17:30:16.309Z,26.20
2022-07-31T17:33:03.934Z,26.00
2022-07-31T17:35:51.514Z,25.80
2022-07-31T17:38:38.995Z,25.60
2022-07-31T17:41:26.635Z,25.50
2022-07-31T17:44:14.937Z,25.30
2022-07-31T17:47:03.392Z,25.20
2022-07-31T17:49:59.739Z,25.10
2022-07-31T17:55:49.999Z,24.70
2022-07-31T17:58:37.455Z,24.50
2022-07-31T18:01:28.920Z,24.50
2022-07-31T18:04:17.085Z,24.30
2022-07-31T18:07:07.484Z,24.20
2022-07-31T18:09:57.188Z,24.20
2022-07-31T18:12:57.859Z,24.00
2022-07-31T18:15:45.813Z,23.90
2022-07-31T18:18:33.184Z,23.80
2022-07-31T18:21:20.680Z,23.60
2022-07-31T18:24:08.942Z,23.50
2022-07-31T18:26:56.485Z,23.30
2022-07-31T18:29:55.883Z,23.20
2022-07-31T18:32:44.176Z,23.00
2022-07-31T18:35:31.710Z,22.80
2022-07-31T18:38:19.522Z,22.60
2022-07-31T18:41:07.324Z,22.40
2022-07-31T18:43:55.163Z,22.30
2022-07-31T18:46:42.594Z,22.20
2022-07-31T18:51:01.369Z,22.10
2022-07-31T18:52:37.595Z,22.20
2022-07-31T18:55:25.189Z,22.20
2022-07-31T18:58:13.094Z,22.20
2022-07-31T19:01:00.969Z,22.20
2022-07-31T19:03:49.593Z,22.20
2022-07-31T19:06:37.119Z,22.10
2022-07-31T19:09:25.392Z,22.10
2022-07-31T19:12:14.079Z,22.00
2022-07-31T19:15:02.932Z,22.00
2022-07-31T19:17:50.374Z,21.90
2022-07-31T19:20:41.324Z,21.80
2022-07-31T19:23:47.118Z,21.70
2022-07-31T19:26:34.696Z,21.70
2022-07-31T19:29:23.483Z,21.70
2022-07-31T19:32:11.674Z,21.70
2022-07-31T19:34:59.178Z,21.70
2022-07-31T19:37:46.814Z,21.70
2022-07-31T19:40:34.480Z,21.80
2022-07-31T19:43:21.948Z,21.80
2022-07-31T19:46:11.715Z,21.80
2022-07-31T19:49:01.492Z,21.80
2022-07-31T19:51:48.998Z,21.80
2022-07-31T19:54:37.318Z,21.80
2022-07-31T19:57:24.848Z,21.80
2022-07-31T20:00:13.664Z,21.70
2022-07-31T20:03:01.233Z,21.60
2022-07-31T20:05:48.754Z,21.60
2022-07-31T20:08:36.439Z,21.50
2022-07-31T20:11:24.159Z,21.40
2022-07-31T20:14:11.619Z,21.40
2022-07-31T20:16:59.149Z,21.30
2022-07-31T20:20:13.308Z,21.20
2022-07-31T20:22:54.004Z,21.10
2022-07-31T20:25:41.590Z,21.00
2022-07-31T20:28:29.109Z,20.90
2022-07-31T20:31:21.728Z,20.90
2022-07-31T20:34:09.709Z,20.90
2022-07-31T20:36:58.825Z,20.90
2022-07-31T20:39:46.885Z,20.90
2022-07-31T20:42:34.583Z,20.90
2022-07-31T20:45:23.413Z,20.90
2022-07-31T20:48:11.024Z,20.90
2022-07-31T20:51:00.570Z,20.90
2022-07-31T20:53:49.859Z,21.00
2022-07-31T20:56:37.740Z,21.00
2022-07-31T20:59:27.219Z,21.00
2022-07-31T21:02:14.684Z,21.00
2022-07-31T21:05:02.807Z,21.00
2022-07-31T21:07:50.300Z,21.00
2022-07-31T21:10:38.704Z,21.10
2022-07-31T21:13:29.159Z,21.10
2022-07-31T21:16:16.628Z,21.10
2022-07-31T21:19:04.239Z,21.00
2022-07-31T21:21:52.533Z,20.90
2022-07-31T21:24:40.442Z,20.90
2022-07-31T21:27:31.139Z,20.80
2022-07-31T21:30:18.760Z,20.70
2022-07-31T21:33:08.220Z,20.70
2022-07-31T21:35:56.504Z,20.70
2022-07-31T21:38:44.459Z,20.70
2022-07-31T21:41:32.379Z,20.60
2022-07-31T21:44:20.334Z,20.70
2022-07-31T21:47:14.785Z,20.70
2022-07-31T21:50:09.262Z,20.70
2022-07-31T21:52:56.786Z,20.70
2022-07-31T21:55:44.260Z,20.80
2022-07-31T21:58:31.804Z,20.80
2022-07-31T22:01:19.364Z,20.90
2022-07-31T22:04:06.895Z,20.90
2022-07-31T22:07:13.059Z,20.90
2022-07-31T22:10:00.631Z,20.90
2022-07-31T22:12:49.194Z,20.90
2022-07-31T22:15:51.433Z,20.90
2022-07-31T22:18:45.040Z,20.90
2022-07-31T22:21:33.406Z,20.90
2022-07-31T22:24:21.046Z,21.00
2022-07-31T22:27:43.999Z,21.00
2022-07-31T22:30:31.802Z,21.00
2022-07-31T22:33:20.143Z,21.00
2022-07-31T22:36:08.429Z,21.00
2022-07-31T22:38:57.305Z,21.00
2022-07-31T22:41:44.865Z,21.00
2022-07-31T22:44:32.440Z,21.00
2022-07-31T22:47:20.200Z,21.00
2022-07-31T22:50:10.321Z,21.00
2022-07-31T22:52:58.263Z,21.00
2022-07-31T22:55:45.769Z,20.90
2022-07-31T22:58:33.238Z,20.80
2022-07-31T23:01:20.758Z,20.70
2022-07-31T23:04:08.296Z,20.60
2022-07-31T23:06:56.320Z,20.60
2022-07-31T23:09:43.840Z,20.60
2022-07-31T23:12:31.428Z,20.50
2022-07-31T23:15:19.020Z,20.50
2022-07-31T23:18:06.595Z,20.50
2022-07-31T23:20:54.138Z,20.50
2022-07-31T23:23:42.216Z,20.50
2022-07-31T23:26:37.206Z,20.50
2022-07-31T23:29:24.784Z,20.40
2022-07-31T23:32:12.346Z,20.40
2022-07-31T23:34:59.835Z,20.20
2022-07-31T23:37:47.950Z,20.00
2022-07-31T23:40:35.475Z,19.90
2022-07-31T23:43:24.124Z,20.00
2022-07-31T23:46:11.594Z,20.00
2022-07-31T23:48:59.186Z,20.00
2022-07-31T23:51:46.729Z,20.00
2022-07-31T23:54:34.234Z,20.00
2022-07-31T23:57:21.730Z,20.00
